sensor_id;sensor_type;location;lat;lon;timestamp;pressure;altitude;pressure_sealevel;temperature;humidity
4199;BME280;2113;50.946;14.610;2023-03-22T00:01:07;96865.31;;;7.89;85.36
4199;BME280;2113;50.946;14.610;2023-03-22T00:03:36;96871.59;;;7.87;85.50
4199;BME280;2113;50.946;14.610;2023-03-22T00:06:05;96863.91;;;7.85;85.83
4199;BME280;2113;50.946;14.610;2023-03-22T00:08:34;96856.66;;;7.79;86.49
4199;BME280;2113;50.946;14.610;2023-03-22T00:11:03;96862.91;;;7.76;86.36
4199;BME280;2113;50.946;14.610;2023-03-22T00:13:32;96858.91;;;7.72;86.66
4199;BME280;2113;50.946;14.610;2023-03-22T00:16:03;96861.31;;;7.85;86.40
4199;BME280;2113;50.946;14.610;2023-03-22T00:18:32;96857.44;;;7.79;86.48
4199;BME280;2113;50.946;14.610;2023-03-22T00:21:00;96853.72;;;7.72;86.51
4199;BME280;2113;50.946;14.610;2023-03-22T00:23:28;96851.59;;;7.66;86.95
4199;BME280;2113;50.946;14.610;2023-03-22T00:25:57;96846.69;;;7.63;87.56
4199;BME280;2113;50.946;14.610;2023-03-22T00:28:26;96844.22;;;7.62;87.55
4199;BME280;2113;50.946;14.610;2023-03-22T00:30:56;96845.88;;;7.63;88.10
4199;BME280;2113;50.946;14.610;2023-03-22T00:33:28;96844.09;;;7.63;88.10
4199;BME280;2113;50.946;14.610;2023-03-22T00:35:58;96841.78;;;7.70;87.90
4199;BME280;2113;50.946;14.610;2023-03-22T00:38:27;96842.50;;;7.72;87.72
4199;BME280;2113;50.946;14.610;2023-03-22T00:41:11;96828.66;;;7.71;87.66
4199;BME280;2113;50.946;14.610;2023-03-22T00:43:40;96841.78;;;7.70;87.85
4199;BME280;2113;50.946;14.610;2023-03-22T00:46:09;96840.38;;;7.66;88.29
4199;BME280;2113;50.946;14.610;2023-03-22T00:48:39;96842.69;;;7.59;88.48
4199;BME280;2113;50.946;14.610;2023-03-22T00:51:09;96840.56;;;7.53;89.40
4199;BME280;2113;50.946;14.610;2023-03-22T00:53:37;96839.06;;;7.51;89.81
4199;BME280;2113;50.946;14.610;2023-03-22T00:56:10;96840.72;;;7.52;89.98
4199;BME280;2113;50.946;14.610;2023-03-22T00:58:54;96844.81;;;7.54;90.11
4199;BME280;2113;50.946;14.610;2023-03-22T01:01:22;96849.31;;;7.52;90.03
4199;BME280;2113;50.946;14.610;2023-03-22T01:03:52;96849.19;;;7.54;89.91
4199;BME280;2113;50.946;14.610;2023-03-22T01:06:20;96842.34;;;7.53;89.53
4199;BME280;2113;50.946;14.610;2023-03-22T01:08:49;96853.97;;;7.48;90.12
4199;BME280;2113;50.946;14.610;2023-03-22T01:11:21;96849.72;;;7.47;89.82
4199;BME280;2113;50.946;14.610;2023-03-22T01:13:50;96847.13;;;7.47;90.00
4199;BME280;2113;50.946;14.610;2023-03-22T01:16:18;96845.84;;;7.42;91.04
4199;BME280;2113;50.946;14.610;2023-03-22T01:18:47;96844.88;;;7.43;91.27
4199;BME280;2113;50.946;14.610;2023-03-22T01:21:17;96845.84;;;7.42;92.24
4199;BME280;2113;50.946;14.610;2023-03-22T01:23:46;96841.47;;;7.42;91.95
4199;BME280;2113;50.946;14.610;2023-03-22T01:26:14;96832.84;;;7.42;92.30
4199;BME280;2113;50.946;14.610;2023-03-22T01:28:42;96836.25;;;7.42;92.05
4199;BME280;2113;50.946;14.610;2023-03-22T01:31:10;96826.13;;;7.39;92.42
4199;BME280;2113;50.946;14.610;2023-03-22T01:33:39;96819.03;;;7.41;92.59
4199;BME280;2113;50.946;14.610;2023-03-22T01:36:08;96820.31;;;7.47;92.53
4199;BME280;2113;50.946;14.610;2023-03-22T01:38:37;96805.41;;;7.49;92.43
4199;BME280;2113;50.946;14.610;2023-03-22T01:41:06;96809.78;;;7.48;92.30
4199;BME280;2113;50.946;14.610;2023-03-22T01:43:37;96806.13;;;7.51;92.32
4199;BME280;2113;50.946;14.610;2023-03-22T01:46:06;96809.25;;;7.55;92.26
4199;BME280;2113;50.946;14.610;2023-03-22T01:48:37;96811.16;;;7.53;92.42
4199;BME280;2113;50.946;14.610;2023-03-22T01:51:10;96810.72;;;7.68;92.02
4199;BME280;2113;50.946;14.610;2023-03-22T01:53:56;96811.13;;;7.64;91.78
4199;BME280;2113;50.946;14.610;2023-03-22T01:56:29;96816.38;;;7.53;92.63
4199;BME280;2113;50.946;14.610;2023-03-22T01:58:58;96822.31;;;7.43;93.82
4199;BME280;2113;50.946;14.610;2023-03-22T02:01:38;96821.75;;;7.40;93.71
4199;BME280;2113;50.946;14.610;2023-03-22T02:04:09;96816.44;;;7.41;93.44
4199;BME280;2113;50.946;14.610;2023-03-22T02:06:40;96811.88;;;7.55;92.96
4199;BME280;2113;50.946;14.610;2023-03-22T02:09:15;96812.69;;;7.55;92.81
4199;BME280;2113;50.946;14.610;2023-03-22T02:11:51;96808.44;;;7.54;92.61
4199;BME280;2113;50.946;14.610;2023-03-22T02:14:44;96800.41;;;7.57;92.51
4199;BME280;2113;50.946;14.610;2023-03-22T02:17:56;96802.53;;;7.52;92.83
4199;BME280;2113;50.946;14.610;2023-03-22T02:20:50;96799.94;;;7.52;93.19
4199;BME280;2113;50.946;14.610;2023-03-22T02:23:57;96805.97;;;7.53;92.78
4199;BME280;2113;50.946;14.610;2023-03-22T02:27:02;96801.53;;;7.43;93.15
4199;BME280;2113;50.946;14.610;2023-03-22T02:29:44;96795.72;;;7.51;92.93
4199;BME280;2113;50.946;14.610;2023-03-22T02:32:44;96790.97;;;7.56;91.94
4199;BME280;2113;50.946;14.610;2023-03-22T02:35:26;96782.84;;;7.49;91.65
4199;BME280;2113;50.946;14.610;2023-03-22T02:38:12;96776.00;;;7.28;92.35
4199;BME280;2113;50.946;14.610;2023-03-22T02:40:49;96781.13;;;7.18;92.41
4199;BME280;2113;50.946;14.610;2023-03-22T02:43:28;96781.84;;;6.88;93.14
4199;BME280;2113;50.946;14.610;2023-03-22T02:46:08;96770.03;;;6.84;94.00
4199;BME280;2113;50.946;14.610;2023-03-22T02:48:41;96772.56;;;6.74;94.46
4199;BME280;2113;50.946;14.610;2023-03-22T02:51:16;96764.94;;;6.62;94.75
4199;BME280;2113;50.946;14.610;2023-03-22T02:53:49;96768.03;;;6.56;95.14
4199;BME280;2113;50.946;14.610;2023-03-22T02:56:24;96769.81;;;6.33;94.92
4199;BME280;2113;50.946;14.610;2023-03-22T02:58:58;96767.97;;;6.13;94.71
4199;BME280;2113;50.946;14.610;2023-03-22T03:01:33;96770.44;;;6.03;94.46
4199;BME280;2113;50.946;14.610;2023-03-22T03:04:05;96772.66;;;5.85;94.69
4199;BME280;2113;50.946;14.610;2023-03-22T03:06:36;96780.66;;;5.71;95.24
4199;BME280;2113;50.946;14.610;2023-03-22T03:09:07;96772.16;;;5.58;95.39
4199;BME280;2113;50.946;14.610;2023-03-22T03:11:37;96777.19;;;5.48;95.24
4199;BME280;2113;50.946;14.610;2023-03-22T03:14:05;96779.19;;;5.45;95.67
4199;BME280;2113;50.946;14.610;2023-03-22T03:16:34;96785.31;;;5.32;95.76
4199;BME280;2113;50.946;14.610;2023-03-22T03:19:07;96777.53;;;5.32;96.05
4199;BME280;2113;50.946;14.610;2023-03-22T03:21:45;96774.13;;;5.08;95.98
4199;BME280;2113;50.946;14.610;2023-03-22T03:24:22;96769.44;;;5.02;96.60
4199;BME280;2113;50.946;14.610;2023-03-22T03:27:00;96772.78;;;5.15;97.60
4199;BME280;2113;50.946;14.610;2023-03-22T03:29:36;96770.91;;;5.17;97.77
4199;BME280;2113;50.946;14.610;2023-03-22T03:32:09;96771.81;;;5.05;97.95
4199;BME280;2113;50.946;14.610;2023-03-22T03:34:45;96768.59;;;5.02;98.01
4199;BME280;2113;50.946;14.610;2023-03-22T03:37:18;96769.44;;;5.02;98.08
4199;BME280;2113;50.946;14.610;2023-03-22T03:39:51;96778.44;;;4.96;97.75
4199;BME280;2113;50.946;14.610;2023-03-22T03:42:24;96777.72;;;4.94;98.05
4199;BME280;2113;50.946;14.610;2023-03-22T03:44:55;96782.44;;;4.89;98.43
4199;BME280;2113;50.946;14.610;2023-03-22T03:47:24;96781.50;;;4.90;98.46
4199;BME280;2113;50.946;14.610;2023-03-22T03:49:55;96787.94;;;4.85;98.54
4199;BME280;2113;50.946;14.610;2023-03-22T03:52:24;96792.66;;;4.67;98.19
4199;BME280;2113;50.946;14.610;2023-03-22T03:54:53;96790.53;;;4.61;98.41
4199;BME280;2113;50.946;14.610;2023-03-22T03:57:29;96792.44;;;4.46;98.22
4199;BME280;2113;50.946;14.610;2023-03-22T03:59:58;96790.84;;;4.20;98.03
4199;BME280;2113;50.946;14.610;2023-03-22T04:03:04;96799.38;;;4.09;98.12
4199;BME280;2113;50.946;14.610;2023-03-22T04:05:53;96793.38;;;3.96;98.48
4199;BME280;2113;50.946;14.610;2023-03-22T04:08:22;96792.13;;;3.89;98.76
4199;BME280;2113;50.946;14.610;2023-03-22T04:10:50;96795.03;;;3.84;98.95
4199;BME280;2113;50.946;14.610;2023-03-22T04:13:22;96798.97;;;3.90;98.81
4199;BME280;2113;50.946;14.610;2023-03-22T04:15:54;96800.09;;;3.86;99.15
4199;BME280;2113;50.946;14.610;2023-03-22T04:18:24;96792.88;;;3.91;99.36
4199;BME280;2113;50.946;14.610;2023-03-22T04:20:58;96791.63;;;3.84;99.29
4199;BME280;2113;50.946;14.610;2023-03-22T04:23:31;96787.63;;;3.80;99.28
4199;BME280;2113;50.946;14.610;2023-03-22T04:26:00;96789.03;;;3.84;99.54
4199;BME280;2113;50.946;14.610;2023-03-22T04:28:53;96786.34;;;3.85;99.69
4199;BME280;2113;50.946;14.610;2023-03-22T04:31:21;96781.25;;;3.97;99.82
4199;BME280;2113;50.946;14.610;2023-03-22T04:34:00;96785.50;;;3.98;99.84
4199;BME280;2113;50.946;14.610;2023-03-22T04:36:47;96786.22;;;4.00;100.00
4199;BME280;2113;50.946;14.610;2023-03-22T04:39:23;96791.00;;;4.06;100.00
4199;BME280;2113;50.946;14.610;2023-03-22T04:41:58;96792.53;;;4.08;100.00
4199;BME280;2113;50.946;14.610;2023-03-22T04:44:30;96777.31;;;4.16;100.00
4199;BME280;2113;50.946;14.610;2023-03-22T04:46:58;96775.13;;;4.59;100.00
4199;BME280;2113;50.946;14.610;2023-03-22T04:49:26;96775.06;;;4.48;100.00
4199;BME280;2113;50.946;14.610;2023-03-22T04:51:54;96777.31;;;4.16;100.00
4199;BME280;2113;50.946;14.610;2023-03-22T04:54:36;96777.41;;;4.15;100.00
4199;BME280;2113;50.946;14.610;2023-03-22T04:57:05;96778.88;;;4.19;100.00
4199;BME280;2113;50.946;14.610;2023-03-22T04:59:42;96784.75;;;4.21;100.00
4199;BME280;2113;50.946;14.610;2023-03-22T05:02:10;96785.91;;;4.17;100.00
4199;BME280;2113;50.946;14.610;2023-03-22T05:04:41;96781.84;;;4.25;100.00
4199;BME280;2113;50.946;14.610;2023-03-22T05:07:26;96779.88;;;4.29;100.00
4199;BME280;2113;50.946;14.610;2023-03-22T05:09:57;96784.72;;;4.34;100.00
4199;BME280;2113;50.946;14.610;2023-03-22T05:12:25;96780.09;;;4.13;100.00
4199;BME280;2113;50.946;14.610;2023-03-22T05:15:06;96789.56;;;3.89;99.78
4199;BME280;2113;50.946;14.610;2023-03-22T05:17:36;96784.94;;;3.81;100.00
4199;BME280;2113;50.946;14.610;2023-03-22T05:20:06;96796.56;;;3.87;100.00
4199;BME280;2113;50.946;14.610;2023-03-22T05:22:38;96787.75;;;4.15;100.00
4199;BME280;2113;50.946;14.610;2023-03-22T05:25:09;96786.13;;;4.50;100.00
4199;BME280;2113;50.946;14.610;2023-03-22T05:27:42;96791.19;;;4.76;100.00
4199;BME280;2113;50.946;14.610;2023-03-22T05:30:30;96784.84;;;5.04;100.00
4199;BME280;2113;50.946;14.610;2023-03-22T05:33:09;96787.69;;;5.12;100.00
4199;BME280;2113;50.946;14.610;2023-03-22T05:35:42;96778.66;;;5.17;100.00
4199;BME280;2113;50.946;14.610;2023-03-22T05:38:11;96782.00;;;5.30;99.75
4199;BME280;2113;50.946;14.610;2023-03-22T05:40:44;96775.72;;;5.33;98.97
4199;BME280;2113;50.946;14.610;2023-03-22T05:43:12;96775.72;;;5.33;98.71
4199;BME280;2113;50.946;14.610;2023-03-22T05:45:46;96777.25;;;5.24;98.80
4199;BME280;2113;50.946;14.610;2023-03-22T05:48:31;96778.09;;;5.25;98.48
4199;BME280;2113;50.946;14.610;2023-03-22T05:50:59;96779.94;;;5.23;97.80
4199;BME280;2113;50.946;14.610;2023-03-22T05:53:32;96776.66;;;5.21;98.23
4199;BME280;2113;50.946;14.610;2023-03-22T05:56:08;96778.09;;;5.25;98.18
4199;BME280;2113;50.946;14.610;2023-03-22T05:58:39;96779.16;;;5.33;98.65
4199;BME280;2113;50.946;14.610;2023-03-22T06:01:13;96786.25;;;5.43;98.38
4199;BME280;2113;50.946;14.610;2023-03-22T06:03:42;96778.84;;;5.49;98.15
4199;BME280;2113;50.946;14.610;2023-03-22T06:06:18;96785.34;;;5.66;98.28
4199;BME280;2113;50.946;14.610;2023-03-22T06:08:57;96775.97;;;5.87;98.64
4199;BME280;2113;50.946;14.610;2023-03-22T06:11:42;96777.88;;;6.07;97.82
4199;BME280;2113;50.946;14.610;2023-03-22T06:14:10;96781.88;;;6.23;96.60
4199;BME280;2113;50.946;14.610;2023-03-22T06:16:57;96779.34;;;6.43;96.42
4199;BME280;2113;50.946;14.610;2023-03-22T06:19:26;96775.66;;;6.68;95.10
4199;BME280;2113;50.946;14.610;2023-03-22T06:21:55;96777.28;;;6.81;94.21
4199;BME280;2113;50.946;14.610;2023-03-22T06:24:26;96781.19;;;7.07;93.01
4199;BME280;2113;50.946;14.610;2023-03-22T06:26:54;96780.31;;;7.18;92.44
4199;BME280;2113;50.946;14.610;2023-03-22T06:29:22;96778.81;;;7.36;91.92
4199;BME280;2113;50.946;14.610;2023-03-22T06:31:53;96777.25;;;7.54;91.16
4199;BME280;2113;50.946;14.610;2023-03-22T06:34:23;96773.63;;;7.66;90.20
4199;BME280;2113;50.946;14.610;2023-03-22T06:36:52;96776.47;;;7.84;90.35
4199;BME280;2113;50.946;14.610;2023-03-22T06:39:24;96766.19;;;7.82;88.54
4199;BME280;2113;50.946;14.610;2023-03-22T06:41:53;96767.72;;;8.15;87.91
4199;BME280;2113;50.946;14.610;2023-03-22T06:44:21;96762.03;;;8.31;85.50
4199;BME280;2113;50.946;14.610;2023-03-22T06:47:03;96764.56;;;8.62;84.62
4199;BME280;2113;50.946;14.610;2023-03-22T06:49:56;96769.44;;;8.95;82.14
4199;BME280;2113;50.946;14.610;2023-03-22T06:52:37;96768.59;;;9.23;80.87
4199;BME280;2113;50.946;14.610;2023-03-22T06:55:07;96767.50;;;9.07;79.98
4199;BME280;2113;50.946;14.610;2023-03-22T06:57:35;96765.72;;;9.17;79.95
4199;BME280;2113;50.946;14.610;2023-03-22T07:00:05;96762.44;;;9.15;81.74
4199;BME280;2113;50.946;14.610;2023-03-22T07:02:34;96766.13;;;9.22;79.76
4199;BME280;2113;50.946;14.610;2023-03-22T07:05:27;96764.22;;;9.05;80.99
4199;BME280;2113;50.946;14.610;2023-03-22T07:07:56;96761.63;;;9.24;79.13
4199;BME280;2113;50.946;14.610;2023-03-22T07:10:25;96759.00;;;9.24;78.78
4199;BME280;2113;50.946;14.610;2023-03-22T07:12:53;96761.47;;;9.35;78.61
4199;BME280;2113;50.946;14.610;2023-03-22T07:15:22;96756.72;;;9.77;76.12
4199;BME280;2113;50.946;14.610;2023-03-22T07:18:00;96770.06;;;10.48;74.16
4199;BME280;2113;50.946;14.610;2023-03-22T07:20:32;96752.50;;;11.91;69.84
4199;BME280;2113;50.946;14.610;2023-03-22T07:23:04;96753.66;;;12.64;65.89
4199;BME280;2113;50.946;14.610;2023-03-22T07:25:40;96749.94;;;14.05;58.26
4199;BME280;2113;50.946;14.610;2023-03-22T07:28:30;96752.06;;;15.33;55.65
4199;BME280;2113;50.946;14.610;2023-03-22T07:31:00;96754.38;;;16.91;50.29
4199;BME280;2113;50.946;14.610;2023-03-22T07:33:34;96743.50;;;15.77;53.23
4199;BME280;2113;50.946;14.610;2023-03-22T07:36:06;96739.56;;;17.33;49.04
4199;BME280;2113;50.946;14.610;2023-03-22T07:38:35;96737.56;;;18.12;45.42
4199;BME280;2113;50.946;14.610;2023-03-22T07:41:08;96729.00;;;16.10;49.70
4199;BME280;2113;50.946;14.610;2023-03-22T07:43:53;96731.31;;;15.38;51.97
4199;BME280;2113;50.946;14.610;2023-03-22T07:46:45;96727.34;;;15.80;50.70
4199;BME280;2113;50.946;14.610;2023-03-22T07:49:19;96725.31;;;15.67;52.46
4199;BME280;2113;50.946;14.610;2023-03-22T07:51:57;96722.81;;;16.32;49.03
4199;BME280;2113;50.946;14.610;2023-03-22T07:54:25;96727.41;;;16.75;47.22
4199;BME280;2113;50.946;14.610;2023-03-22T07:57:01;96731.22;;;16.43;48.75
4199;BME280;2113;50.946;14.610;2023-03-22T07:59:33;96737.63;;;14.52;51.90
4199;BME280;2113;50.946;14.610;2023-03-22T08:02:08;96735.28;;;14.57;52.63
4199;BME280;2113;50.946;14.610;2023-03-22T08:04:42;96730.44;;;15.23;50.75
4199;BME280;2113;50.946;14.610;2023-03-22T08:07:25;96732.03;;;14.55;51.97
4199;BME280;2113;50.946;14.610;2023-03-22T08:09:53;96731.94;;;15.63;51.91
4199;BME280;2113;50.946;14.610;2023-03-22T08:12:24;96721.78;;;16.48;47.97
4199;BME280;2113;50.946;14.610;2023-03-22T08:15:04;96719.31;;;15.58;50.93
4199;BME280;2113;50.946;14.610;2023-03-22T08:17:33;96726.72;;;15.92;50.28
4199;BME280;2113;50.946;14.610;2023-03-22T08:20:03;96725.84;;;17.23;46.78
4199;BME280;2113;50.946;14.610;2023-03-22T08:22:45;96744.06;;;16.16;48.46
4199;BME280;2113;50.946;14.610;2023-03-22T08:25:26;96749.19;;;15.66;49.96
4199;BME280;2113;50.946;14.610;2023-03-22T08:28:03;96737.78;;;13.96;54.75
4199;BME280;2113;50.946;14.610;2023-03-22T08:30:32;96736.22;;;14.73;54.69
4199;BME280;2113;50.946;14.610;2023-03-22T08:33:02;96742.59;;;15.01;53.39
4199;BME280;2113;50.946;14.610;2023-03-22T08:35:31;96739.84;;;15.40;51.25
4199;BME280;2113;50.946;14.610;2023-03-22T08:38:01;96737.16;;;15.71;51.96
4199;BME280;2113;50.946;14.610;2023-03-22T08:40:38;96742.81;;;15.60;51.35
4199;BME280;2113;50.946;14.610;2023-03-22T08:43:07;96740.28;;;15.29;51.07
4199;BME280;2113;50.946;14.610;2023-03-22T08:45:35;96740.09;;;15.08;50.23
4199;BME280;2113;50.946;14.610;2023-03-22T08:48:10;96738.53;;;15.59;51.80
4199;BME280;2113;50.946;14.610;2023-03-22T08:51:05;96725.88;;;15.77;49.27
4199;BME280;2113;50.946;14.610;2023-03-22T08:53:55;96730.03;;;14.88;52.51
4199;BME280;2113;50.946;14.610;2023-03-22T08:56:44;96729.66;;;15.37;52.41
4199;BME280;2113;50.946;14.610;2023-03-22T08:59:28;96721.25;;;16.38;50.33
4199;BME280;2113;50.946;14.610;2023-03-22T09:02:23;96717.34;;;16.85;47.96
4199;BME280;2113;50.946;14.610;2023-03-22T09:04:53;96724.41;;;16.48;49.07
4199;BME280;2113;50.946;14.610;2023-03-22T09:07:21;96719.00;;;16.86;48.34
4199;BME280;2113;50.946;14.610;2023-03-22T09:10:03;96724.16;;;17.36;47.47
4199;BME280;2113;50.946;14.610;2023-03-22T09:12:35;96715.94;;;17.03;45.78
4199;BME280;2113;50.946;14.610;2023-03-22T09:15:05;96717.56;;;16.54;49.33
4199;BME280;2113;50.946;14.610;2023-03-22T09:17:37;96721.44;;;16.37;48.89
4199;BME280;2113;50.946;14.610;2023-03-22T09:20:06;96722.00;;;16.03;48.80
4199;BME280;2113;50.946;14.610;2023-03-22T09:22:41;96724.50;;;16.40;48.99
4199;BME280;2113;50.946;14.610;2023-03-22T09:25:14;96714.25;;;16.16;50.37
4199;BME280;2113;50.946;14.610;2023-03-22T09:27:45;96723.91;;;16.89;48.77
4199;BME280;2113;50.946;14.610;2023-03-22T09:30:14;96714.72;;;16.05;49.41
4199;BME280;2113;50.946;14.610;2023-03-22T09:32:43;96711.06;;;16.64;50.48
4199;BME280;2113;50.946;14.610;2023-03-22T09:35:14;96712.97;;;17.13;46.82
4199;BME280;2113;50.946;14.610;2023-03-22T09:37:57;96709.25;;;16.65;49.73
4199;BME280;2113;50.946;14.610;2023-03-22T09:40:29;96710.56;;;16.25;49.49
4199;BME280;2113;50.946;14.610;2023-03-22T09:43:03;96709.56;;;15.96;48.78
4199;BME280;2113;50.946;14.610;2023-03-22T09:45:35;96712.72;;;16.07;49.42
4199;BME280;2113;50.946;14.610;2023-03-22T09:48:13;96711.56;;;16.24;48.55
4199;BME280;2113;50.946;14.610;2023-03-22T09:50:45;96717.16;;;16.65;46.28
4199;BME280;2113;50.946;14.610;2023-03-22T09:53:15;96711.72;;;16.88;45.90
4199;BME280;2113;50.946;14.610;2023-03-22T09:55:49;96697.06;;;16.49;46.18
4199;BME280;2113;50.946;14.610;2023-03-22T09:58:24;96700.78;;;17.12;42.78
4199;BME280;2113;50.946;14.610;2023-03-22T10:00:57;96693.56;;;17.70;45.62
4199;BME280;2113;50.946;14.610;2023-03-22T10:03:52;96694.53;;;16.92;45.69
4199;BME280;2113;50.946;14.610;2023-03-22T10:06:24;96687.97;;;17.09;41.68
4199;BME280;2113;50.946;14.610;2023-03-22T10:09:01;96693.44;;;16.50;44.04
4199;BME280;2113;50.946;14.610;2023-03-22T10:11:41;96683.81;;;16.28;45.87
4199;BME280;2113;50.946;14.610;2023-03-22T10:14:21;96679.19;;;15.86;47.61
4199;BME280;2113;50.946;14.610;2023-03-22T10:16:54;96677.53;;;16.29;46.89
4199;BME280;2113;50.946;14.610;2023-03-22T10:19:27;96674.97;;;16.65;43.86
4199;BME280;2113;50.946;14.610;2023-03-22T10:22:00;96677.56;;;16.14;44.37
4199;BME280;2113;50.946;14.610;2023-03-22T10:24:30;96664.69;;;16.91;43.49
4199;BME280;2113;50.946;14.610;2023-03-22T10:27:02;96654.69;;;16.87;43.68
4199;BME280;2113;50.946;14.610;2023-03-22T10:29:33;96659.88;;;17.72;43.17
4199;BME280;2113;50.946;14.610;2023-03-22T10:32:13;96652.78;;;18.14;40.65
4199;BME280;2113;50.946;14.610;2023-03-22T10:34:42;96642.34;;;18.53;42.90
4199;BME280;2113;50.946;14.610;2023-03-22T10:37:14;96648.56;;;17.57;40.71
4199;BME280;2113;50.946;14.610;2023-03-22T10:39:45;96641.81;;;18.17;44.44
4199;BME280;2113;50.946;14.610;2023-03-22T10:42:20;96647.94;;;18.71;40.63
4199;BME280;2113;50.946;14.610;2023-03-22T10:44:54;96638.72;;;18.06;41.86
4199;BME280;2113;50.946;14.610;2023-03-22T10:47:29;96641.06;;;16.83;44.23
4199;BME280;2113;50.946;14.610;2023-03-22T10:50:01;96637.69;;;17.66;44.87
4199;BME280;2113;50.946;14.610;2023-03-22T10:52:37;96637.75;;;16.39;46.71
4199;BME280;2113;50.946;14.610;2023-03-22T10:55:12;96630.31;;;16.85;43.92
4199;BME280;2113;50.946;14.610;2023-03-22T10:57:48;96629.56;;;16.69;46.23
4199;BME280;2113;50.946;14.610;2023-03-22T11:00:19;96644.56;;;16.69;45.73
4199;BME280;2113;50.946;14.610;2023-03-22T11:02:51;96636.41;;;16.64;46.24
4199;BME280;2113;50.946;14.610;2023-03-22T11:05:23;96630.34;;;16.49;46.26
4199;BME280;2113;50.946;14.610;2023-03-22T11:07:52;96622.84;;;16.31;47.58
4199;BME280;2113;50.946;14.610;2023-03-22T11:10:24;96630.19;;;15.70;48.01
4199;BME280;2113;50.946;14.610;2023-03-22T11:13:10;96632.91;;;15.24;49.38
4199;BME280;2113;50.946;14.610;2023-03-22T11:15:48;96626.75;;;15.32;49.26
4199;BME280;2113;50.946;14.610;2023-03-22T11:18:19;96621.47;;;15.17;49.58
4199;BME280;2113;50.946;14.610;2023-03-22T11:20:57;96612.78;;;16.20;48.19
4199;BME280;2113;50.946;14.610;2023-03-22T11:23:27;96610.56;;;16.59;48.79
4199;BME280;2113;50.946;14.610;2023-03-22T11:26:04;96603.44;;;16.75;47.86
4199;BME280;2113;50.946;14.610;2023-03-22T11:28:41;96603.59;;;16.66;46.17
4199;BME280;2113;50.946;14.610;2023-03-22T11:31:11;96604.69;;;16.21;45.97
4199;BME280;2113;50.946;14.610;2023-03-22T11:33:52;96589.41;;;16.95;47.25
4199;BME280;2113;50.946;14.610;2023-03-22T11:36:22;96597.88;;;17.40;44.87
4199;BME280;2113;50.946;14.610;2023-03-22T11:38:56;96592.28;;;16.00;45.73
4199;BME280;2113;50.946;14.610;2023-03-22T11:41:26;96594.47;;;15.53;49.33
4199;BME280;2113;50.946;14.610;2023-03-22T11:43:59;96589.72;;;15.71;51.54
4199;BME280;2113;50.946;14.610;2023-03-22T11:46:29;96583.31;;;16.31;48.57
4199;BME280;2113;50.946;14.610;2023-03-22T11:49:01;96581.72;;;15.64;48.60
4199;BME280;2113;50.946;14.610;2023-03-22T11:51:32;96584.78;;;15.53;48.48
4199;BME280;2113;50.946;14.610;2023-03-22T11:58:55;96580.66;;;15.21;48.58
4199;BME280;2113;50.946;14.610;2023-03-22T12:01:33;96567.31;;;15.08;50.70
4199;BME280;2113;50.946;14.610;2023-03-22T12:04:06;96571.25;;;15.42;50.31
4199;BME280;2113;50.946;14.610;2023-03-22T12:06:37;96567.91;;;15.77;48.95
4199;BME280;2113;50.946;14.610;2023-03-22T12:09:15;96555.63;;;16.20;49.30
4199;BME280;2113;50.946;14.610;2023-03-22T12:11:49;96553.91;;;16.70;45.85
4199;BME280;2113;50.946;14.610;2023-03-22T12:14:21;96553.06;;;16.48;47.39
4199;BME280;2113;50.946;14.610;2023-03-22T12:16:55;96555.25;;;15.87;47.07
4199;BME280;2113;50.946;14.610;2023-03-22T12:19:37;96544.03;;;15.64;50.38
4199;BME280;2113;50.946;14.610;2023-03-22T12:22:12;96533.97;;;15.68;49.29
4199;BME280;2113;50.946;14.610;2023-03-22T12:24:42;96546.91;;;15.98;47.31
4199;BME280;2113;50.946;14.610;2023-03-22T12:27:15;96535.13;;;16.37;46.42
4199;BME280;2113;50.946;14.610;2023-03-22T12:29:48;96547.44;;;16.51;46.69
4199;BME280;2113;50.946;14.610;2023-03-22T12:32:22;96533.88;;;15.61;47.86
4199;BME280;2113;50.946;14.610;2023-03-22T12:34:52;96533.38;;;14.99;50.77
4199;BME280;2113;50.946;14.610;2023-03-22T12:37:40;96531.63;;;14.91;52.06
4199;BME280;2113;50.946;14.610;2023-03-22T12:40:19;96520.06;;;16.10;52.18
4199;BME280;2113;50.946;14.610;2023-03-22T12:42:56;96520.78;;;15.82;49.13
4199;BME280;2113;50.946;14.610;2023-03-22T12:45:28;96517.31;;;15.82;47.69
4199;BME280;2113;50.946;14.610;2023-03-22T12:48:05;96515.06;;;15.79;48.91
4199;BME280;2113;50.946;14.610;2023-03-22T12:50:37;96508.38;;;16.19;48.88
4199;BME280;2113;50.946;14.610;2023-03-22T12:53:11;96503.59;;;16.93;46.34
4199;BME280;2113;50.946;14.610;2023-03-22T12:55:43;96499.44;;;16.84;47.66
4199;BME280;2113;50.946;14.610;2023-03-22T12:58:16;96510.75;;;15.92;46.89
4199;BME280;2113;50.946;14.610;2023-03-22T13:00:51;96505.53;;;15.99;49.10
4199;BME280;2113;50.946;14.610;2023-03-22T13:03:26;96511.25;;;15.52;47.31
4199;BME280;2113;50.946;14.610;2023-03-22T13:06:01;96503.09;;;15.61;49.33
4199;BME280;2113;50.946;14.610;2023-03-22T13:11:45;96492.31;;;16.14;48.60
4199;BME280;2113;50.946;14.610;2023-03-22T13:17:33;96497.31;;;15.87;46.69
4199;BME280;2113;50.946;14.610;2023-03-22T13:20:25;96496.13;;;15.24;48.00
4199;BME280;2113;50.946;14.610;2023-03-22T13:26:00;96497.41;;;15.28;48.86
4199;BME280;2113;50.946;14.610;2023-03-22T13:28:29;96487.94;;;15.19;49.13
4199;BME280;2113;50.946;14.610;2023-03-22T13:31:03;96486.13;;;15.64;48.91
4199;BME280;2113;50.946;14.610;2023-03-22T13:33:33;96485.84;;;16.59;44.00
4199;BME280;2113;50.946;14.610;2023-03-22T13:36:07;96478.75;;;16.81;46.09
4199;BME280;2113;50.946;14.610;2023-03-22T13:38:54;96470.75;;;17.02;42.72
4199;BME280;2113;50.946;14.610;2023-03-22T13:41:26;96461.47;;;16.57;45.19
4199;BME280;2113;50.946;14.610;2023-03-22T13:43:56;96473.97;;;16.69;43.87
4199;BME280;2113;50.946;14.610;2023-03-22T13:46:43;96459.28;;;17.23;43.78
4199;BME280;2113;50.946;14.610;2023-03-22T13:49:24;96457.91;;;17.27;45.12
4199;BME280;2113;50.946;14.610;2023-03-22T13:51:58;96461.97;;;16.95;42.38
4199;BME280;2113;50.946;14.610;2023-03-22T13:54:33;96454.91;;;16.46;45.63
4199;BME280;2113;50.946;14.610;2023-03-22T13:57:03;96452.13;;;16.05;45.03
4199;BME280;2113;50.946;14.610;2023-03-22T14:00:00;96454.81;;;15.90;46.38
4199;BME280;2113;50.946;14.610;2023-03-22T14:02:40;96453.44;;;16.37;45.35
4199;BME280;2113;50.946;14.610;2023-03-22T14:05:14;96443.56;;;16.67;44.81
4199;BME280;2113;50.946;14.610;2023-03-22T14:07:46;96449.66;;;17.02;43.35